PWSweather.com
Personal Weather Stations
Station Observations
ZL1DX1M
Mt. Roskill, Auckland, AK 1041

Mt. RoskillAuckland, AK 1041

Lat: -36.9, Lon: 174.74

Elevation: 54

Station Type:

http://www.sanctuaryweather.co.nz

Latest ConditionsUpdated 8:30:13 PM GMT+12 Thursday, May 7, 2015
Currently Today's Max Today's Min Today's Average
Temperature 65.5°F18.6°C 73.9°F23.3°C 62.6°F17.0°C 66.8°F19.3°C
Dew Point 63.4°F17.4°C 65.0°F18.3°C 60.7°F15.9°C 62.8°F17.1°C
Winds Calm Calm 6.0 mph WNW9.7 kmh WNW - 0.8 mph 1.3 kmh
Wind Gusts -- 11.0 mph17.7 kmh - -
Humidity 93% 95% 70% 87%
Pressure 29.91 in1012.9 mb 30.16 in1021.3 mb 29.91 in1012.9 mb -
Precipitation - 0.08 in2.0 mm - -
Hour Temp Dew Point Humidity Winds Wind Gusts Pressure Precip Precip Rate Daily Precip Total
08:30 PM 65.5°F18.6°C 63.4°F17.4°C 93% Calm Calm -- 29.91 in1012.9 mb - 0.01 in0.3 mm 0.08 in2.0 mm
08:15 PM 65.7°F18.7°C 63.6°F17.6°C 93% Calm Calm 1.0 mph1.6 kmh 29.91 in1012.9 mb - 0.02 in0.5 mm 0.07 in1.8 mm
08:00 PM 65.9°F18.8°C 63.5°F17.5°C 92% 0.1 mph W0.2 kmh W 4.0 mph6.4 kmh 29.91 in1012.9 mb - 0.02 in0.5 mm 0.06 in1.5 mm
07:45 PM 66.0°F18.9°C 63.6°F17.6°C 92% 0.2 mph WNW0.3 kmh WNW 2.0 mph3.2 kmh 29.92 in1013.2 mb - 0.01 in0.3 mm 0.03 in0.8 mm
07:30 PM 66.1°F18.9°C 63.7°F17.6°C 92% Calm Calm -- 29.92 in1013.2 mb - 0.00 in0.0 mm 0.02 in0.5 mm
07:15 PM 66.3°F19.1°C 63.9°F17.7°C 92% Calm Calm 1.0 mph1.6 kmh 29.92 in1013.2 mb - 0.00 in0.0 mm 0.02 in0.5 mm
07:00 PM 66.2°F19.0°C 63.9°F17.7°C 92% Calm Calm -- 29.92 in1013.2 mb - 0.00 in0.0 mm 0.02 in0.5 mm
06:45 PM 66.3°F19.1°C 63.9°F17.7°C 92% 0.1 mph N0.2 kmh N -- 29.91 in1012.9 mb - 0.00 in0.0 mm 0.02 in0.5 mm
06:30 PM 66.2°F19.0°C 63.8°F17.7°C 92% Calm Calm -- 29.91 in1012.9 mb - 0.00 in0.0 mm 0.02 in0.5 mm
06:15 PM 66.2°F19.0°C 63.5°F17.5°C 91% Calm Calm -- 29.91 in1012.9 mb - 0.00 in0.0 mm 0.02 in0.5 mm
06:00 PM 66.4°F19.1°C 63.7°F17.6°C 91% Calm Calm -- 29.91 in1012.9 mb - 0.00 in0.0 mm 0.02 in0.5 mm
05:45 PM 66.6°F19.2°C 63.6°F17.6°C 90% Calm Calm 1.0 mph1.6 kmh 29.91 in1012.9 mb - 0.00 in0.0 mm 0.02 in0.5 mm
05:30 PM 66.9°F19.4°C 63.9°F17.7°C 90% 1.0 mph W1.6 kmh W 4.0 mph6.4 kmh 29.91 in1012.9 mb - 0.01 in0.3 mm 0.02 in0.5 mm
05:15 PM 67.4°F19.7°C 64.0°F17.8°C 89% 1.3 mph W2.1 kmh W 6.0 mph9.7 kmh 29.91 in1012.9 mb - 0.01 in0.3 mm 0.02 in0.5 mm
05:00 PM 68.3°F20.2°C 64.3°F17.9°C 87% 1.6 mph WSW2.6 kmh WSW 2.0 mph3.2 kmh 29.91 in1012.9 mb - 0.01 in0.3 mm 0.01 in0.3 mm
04:45 PM 69.2°F20.7°C 64.2°F17.9°C 84% 0.4 mph NW0.6 kmh NW 4.0 mph6.4 kmh 29.91 in1012.9 mb - 0.00 in0.0 mm 0.00 in0.0 mm
04:30 PM 69.4°F20.8°C 64.4°F18.0°C 84% 0.9 mph WSW1.4 kmh WSW 2.0 mph3.2 kmh 29.91 in1012.9 mb - 0.00 in0.0 mm 0.00 in0.0 mm
04:15 PM 69.8°F21.0°C 64.4°F18.0°C 83% 0.4 mph NW0.6 kmh NW 2.0 mph3.2 kmh 29.91 in1012.9 mb - 0.00 in0.0 mm 0.00 in0.0 mm
04:00 PM 70.2°F21.2°C 64.4°F18.0°C 82% 0.9 mph N1.4 kmh N 4.0 mph6.4 kmh 29.91 in1012.9 mb - 0.00 in0.0 mm 0.00 in0.0 mm
03:45 PM 70.6°F21.4°C 64.1°F17.8°C 80% 1.7 mph NNW2.7 kmh NNW 4.0 mph6.4 kmh 29.91 in1012.9 mb - 0.00 in0.0 mm 0.00 in0.0 mm
03:30 PM 71.1°F21.7°C 63.9°F17.7°C 78% 2.4 mph NW3.9 kmh NW 4.0 mph6.4 kmh 29.91 in1012.9 mb - 0.00 in0.0 mm 0.00 in0.0 mm
03:15 PM 72.1°F22.3°C 64.1°F17.8°C 76% 1.4 mph NW2.3 kmh NW 1.0 mph1.6 kmh 29.92 in1013.2 mb - 0.00 in0.0 mm 0.00 in0.0 mm
03:00 PM 72.6°F22.6°C 62.3°F16.8°C 70% 1.8 mph NW2.9 kmh NW 5.0 mph8.0 kmh 29.91 in1012.9 mb - 0.00 in0.0 mm 0.00 in0.0 mm
02:45 PM 73.0°F22.8°C 62.6°F17.0°C 70% 3.0 mph S4.8 kmh S 10.0 mph16.1 kmh 29.92 in1013.2 mb - 0.00 in0.0 mm 0.00 in0.0 mm
02:30 PM 72.9°F22.7°C 62.5°F16.9°C 70% 5.6 mph W9.0 kmh W 9.0 mph14.5 kmh 29.92 in1013.2 mb - 0.00 in0.0 mm 0.00 in0.0 mm
02:15 PM 73.3°F22.9°C 63.3°F17.4°C 71% 3.9 mph WSW6.3 kmh WSW 11.0 mph17.7 kmh 29.92 in1013.2 mb - 0.00 in0.0 mm 0.00 in0.0 mm
02:00 PM 72.9°F22.7°C 63.3°F17.4°C 72% 2.9 mph WSW4.7 kmh WSW 9.0 mph14.5 kmh 29.93 in1013.5 mb - 0.00 in0.0 mm 0.00 in0.0 mm
01:45 PM 72.8°F22.7°C 63.2°F17.3°C 72% 3.1 mph SW5.0 kmh SW 6.0 mph9.7 kmh 29.93 in1013.5 mb - 0.00 in0.0 mm 0.00 in0.0 mm
01:30 PM 73.9°F23.3°C 63.9°F17.7°C 71% 6.0 mph WNW9.7 kmh WNW 11.0 mph17.7 kmh 29.94 in1013.9 mb - 0.00 in0.0 mm 0.00 in0.0 mm
01:15 PM 72.6°F22.6°C 63.9°F17.7°C 74% 1.6 mph WSW2.6 kmh WSW 4.0 mph6.4 kmh 29.94 in1013.9 mb - 0.00 in0.0 mm 0.00 in0.0 mm
01:00 PM 72.3°F22.4°C 63.9°F17.7°C 75% 3.4 mph WSW5.5 kmh WSW 8.0 mph12.9 kmh 29.95 in1014.2 mb - 0.00 in0.0 mm 0.00 in0.0 mm
12:45 PM 71.8°F22.1°C 63.4°F17.4°C 75% 4.9 mph SW7.9 kmh SW 11.0 mph17.7 kmh 29.96 in1014.6 mb - 0.00 in0.0 mm 0.00 in0.0 mm
12:30 PM 71.7°F22.1°C 63.4°F17.4°C 75% 4.1 mph WNW6.6 kmh WNW 9.0 mph14.5 kmh 29.97 in1014.9 mb - 0.00 in0.0 mm 0.00 in0.0 mm
12:15 PM 71.9°F22.2°C 63.1°F17.3°C 74% 2.0 mph NW3.2 kmh NW 4.0 mph6.4 kmh 29.98 in1015.2 mb - 0.00 in0.0 mm 0.00 in0.0 mm
12:00 PM 72.0°F22.2°C 64.0°F17.8°C 76% 1.9 mph W3.1 kmh W 4.0 mph6.4 kmh 29.98 in1015.2 mb - 0.00 in0.0 mm 0.00 in0.0 mm
11:45 AM 71.4°F21.9°C 64.6°F18.1°C 79% 0.4 mph NNW0.6 kmh NNW 4.0 mph6.4 kmh 29.99 in1015.6 mb - 0.00 in0.0 mm 0.00 in0.0 mm
11:30 AM 71.8°F22.1°C 64.9°F18.3°C 79% 1.3 mph NNW2.1 kmh NNW 10.0 mph16.1 kmh 29.99 in1015.6 mb - 0.00 in0.0 mm 0.00 in0.0 mm
11:15 AM 71.9°F22.2°C 65.0°F18.3°C 79% 0.3 mph NNW0.5 kmh NNW 3.0 mph4.8 kmh 30.00 in1015.9 mb - 0.00 in0.0 mm 0.00 in0.0 mm
11:00 AM 71.5°F21.9°C 64.6°F18.1°C 79% 0.7 mph WNW1.1 kmh WNW 1.0 mph1.6 kmh 30.01 in1016.3 mb - 0.00 in0.0 mm 0.00 in0.0 mm
10:45 AM 71.0°F21.7°C 64.5°F18.1°C 80% 1.0 mph WNW1.6 kmh WNW 2.0 mph3.2 kmh 30.01 in1016.3 mb - 0.00 in0.0 mm 0.00 in0.0 mm
10:30 AM 70.9°F21.6°C 63.7°F17.6°C 78% 0.3 mph NNW0.5 kmh NNW 3.0 mph4.8 kmh 30.02 in1016.6 mb - 0.00 in0.0 mm 0.00 in0.0 mm
10:15 AM 70.4°F21.3°C 64.7°F18.2°C 82% 0.5 mph WNW0.8 kmh WNW 2.0 mph3.2 kmh 30.02 in1016.6 mb - 0.00 in0.0 mm 0.00 in0.0 mm
10:00 AM 69.8°F21.0°C 64.0°F17.8°C 82% 1.0 mph W1.6 kmh W 3.0 mph4.8 kmh 30.03 in1016.9 mb - 0.00 in0.0 mm 0.00 in0.0 mm
09:45 AM 69.3°F20.7°C 64.6°F18.1°C 85% 0.7 mph WNW1.1 kmh WNW 2.0 mph3.2 kmh 30.04 in1017.3 mb - 0.00 in0.0 mm 0.00 in0.0 mm
09:30 AM 68.1°F20.1°C 64.4°F18.0°C 88% 1.7 mph NW2.7 kmh NW 8.0 mph12.9 kmh 30.05 in1017.6 mb - 0.00 in0.0 mm 0.00 in0.0 mm
09:15 AM 66.9°F19.4°C 63.9°F17.7°C 90% 1.1 mph W1.8 kmh W 6.0 mph9.7 kmh 30.05 in1017.6 mb - 0.00 in0.0 mm 0.00 in0.0 mm
09:00 AM 66.0°F18.9°C 63.6°F17.6°C 92% 0.2 mph NW0.3 kmh NW -- 30.06 in1017.9 mb - 0.00 in0.0 mm 0.00 in0.0 mm
08:45 AM 64.9°F18.3°C 62.8°F17.1°C 93% 0.6 mph WNW1.0 kmh WNW -- 30.06 in1017.9 mb - 0.00 in0.0 mm 0.00 in0.0 mm
08:30 AM 64.5°F18.1°C 62.4°F16.9°C 93% 0.1 mph NNW0.2 kmh NNW 2.0 mph3.2 kmh 30.06 in1017.9 mb - 0.00 in0.0 mm 0.00 in0.0 mm
08:15 AM 64.1°F17.8°C 62.4°F16.9°C 94% 0.2 mph WNW0.3 kmh WNW 1.0 mph1.6 kmh 30.06 in1017.9 mb - 0.00 in0.0 mm 0.00 in0.0 mm
08:00 AM 63.9°F17.7°C 62.1°F16.7°C 94% 0.1 mph NW0.2 kmh NW 2.0 mph3.2 kmh 30.06 in1017.9 mb - 0.00 in0.0 mm 0.00 in0.0 mm
07:45 AM 63.3°F17.4°C 61.8°F16.6°C 95% 0.2 mph NW0.3 kmh NW 2.0 mph3.2 kmh 30.06 in1017.9 mb - 0.00 in0.0 mm 0.00 in0.0 mm
07:30 AM 62.7°F17.1°C 60.9°F16.1°C 94% Calm Calm -- 30.06 in1017.9 mb - 0.00 in0.0 mm 0.00 in0.0 mm
07:15 AM 62.7°F17.1°C 61.2°F16.2°C 95% Calm Calm -- 30.06 in1017.9 mb - 0.00 in0.0 mm 0.00 in0.0 mm
07:00 AM 62.7°F17.1°C 61.2°F16.2°C 95% Calm Calm -- 30.06 in1017.9 mb - 0.00 in0.0 mm 0.00 in0.0 mm
06:45 AM 62.6°F17.0°C 60.8°F16.0°C 94% Calm Calm -- 30.06 in1017.9 mb - 0.00 in0.0 mm 0.00 in0.0 mm
06:30 AM 62.7°F17.1°C 60.9°F16.1°C 94% Calm Calm -- 30.07 in1018.3 mb - 0.00 in0.0 mm 0.00 in0.0 mm
06:15 AM 62.7°F17.1°C 61.2°F16.2°C 95% Calm Calm -- 30.07 in1018.3 mb - 0.00 in0.0 mm 0.00 in0.0 mm
06:00 AM 62.8°F17.1°C 61.3°F16.3°C 95% Calm Calm -- 30.07 in1018.3 mb - 0.00 in0.0 mm 0.00 in0.0 mm
05:45 AM 62.9°F17.2°C 61.4°F16.3°C 95% 0.1 mph W0.2 kmh W 2.0 mph3.2 kmh 30.08 in1018.6 mb - 0.00 in0.0 mm 0.00 in0.0 mm
05:30 AM 63.0°F17.2°C 61.5°F16.4°C 95% Calm Calm -- 30.07 in1018.3 mb - 0.00 in0.0 mm 0.00 in0.0 mm
05:15 AM 63.0°F17.2°C 61.5°F16.4°C 95% Calm Calm -- 30.08 in1018.6 mb - 0.00 in0.0 mm 0.00 in0.0 mm
05:00 AM 62.9°F17.2°C 61.5°F16.4°C 95% 0.1 mph NW0.2 kmh NW 1.0 mph1.6 kmh 30.08 in1018.6 mb - 0.00 in0.0 mm 0.00 in0.0 mm
04:45 AM 62.7°F17.1°C 60.9°F16.1°C 94% Calm Calm -- 30.08 in1018.6 mb - 0.00 in0.0 mm 0.00 in0.0 mm
04:30 AM 62.7°F17.1°C 60.9°F16.1°C 94% Calm Calm -- 30.09 in1019.0 mb - 0.00 in0.0 mm 0.00 in0.0 mm
04:15 AM 62.8°F17.1°C 61.0°F16.1°C 94% Calm Calm -- 30.09 in1019.0 mb - 0.00 in0.0 mm 0.00 in0.0 mm
04:00 AM 63.1°F17.3°C 61.3°F16.3°C 94% Calm Calm -- 30.10 in1019.3 mb - 0.00 in0.0 mm 0.00 in0.0 mm
03:45 AM 63.4°F17.4°C 61.6°F16.4°C 94% Calm Calm -- 30.11 in1019.6 mb - 0.00 in0.0 mm 0.00 in0.0 mm
03:30 AM 63.5°F17.5°C 61.7°F16.5°C 94% Calm Calm -- 30.11 in1019.6 mb - 0.00 in0.0 mm 0.00 in0.0 mm
03:15 AM 63.4°F17.4°C 61.6°F16.4°C 94% Calm Calm -- 30.11 in1019.6 mb - 0.00 in0.0 mm 0.00 in0.0 mm
03:00 AM 63.3°F17.4°C 61.6°F16.4°C 94% Calm Calm -- 30.12 in1020.0 mb - 0.00 in0.0 mm 0.00 in0.0 mm
02:45 AM 63.3°F17.4°C 61.2°F16.2°C 93% Calm Calm -- 30.12 in1020.0 mb - 0.00 in0.0 mm 0.00 in0.0 mm
02:30 AM 63.3°F17.4°C 61.2°F16.2°C 93% Calm Calm -- 30.13 in1020.3 mb - 0.00 in0.0 mm 0.00 in0.0 mm
02:15 AM 63.3°F17.4°C 61.2°F16.2°C 93% Calm Calm -- 30.14 in1020.7 mb - 0.00 in0.0 mm 0.00 in0.0 mm
02:00 AM 63.2°F17.3°C 61.1°F16.2°C 93% Calm Calm -- 30.14 in1020.7 mb - 0.00 in0.0 mm 0.00 in0.0 mm
01:45 AM 63.1°F17.3°C 61.0°F16.1°C 93% Calm Calm -- 30.14 in1020.7 mb - 0.00 in0.0 mm 0.00 in0.0 mm
01:30 AM 63.2°F17.3°C 61.1°F16.2°C 93% Calm Calm -- 30.14 in1020.7 mb - 0.00 in0.0 mm 0.00 in0.0 mm
01:15 AM 63.2°F17.3°C 60.8°F16.0°C 92% Calm Calm 3.0 mph4.8 kmh 30.14 in1020.7 mb - 0.00 in0.0 mm 0.00 in0.0 mm
01:00 AM 63.3°F17.4°C 60.9°F16.1°C 92% Calm Calm -- 30.15 in1021.0 mb - 0.00 in0.0 mm 0.00 in0.0 mm
12:45 AM 63.5°F17.5°C 60.8°F16.0°C 91% Calm Calm -- 30.15 in1021.0 mb - 0.00 in0.0 mm 0.00 in0.0 mm
12:30 AM 63.6°F17.6°C 60.9°F16.1°C 91% Calm Calm 1.0 mph1.6 kmh 30.16 in1021.3 mb - 0.00 in0.0 mm 0.00 in0.0 mm
12:15 AM 63.8°F17.7°C 61.1°F16.2°C 91% Calm Calm -- 30.16 in1021.3 mb - 0.00 in0.0 mm 0.00 in0.0 mm
12:00 AM 63.7°F17.6°C 60.7°F15.9°C 90% Calm Calm -- 30.16 in1021.3 mb - 0.00 in0.0 mm 0.00 in0.0 mm